sensor_id;sensor_type;location;lat;lon;timestamp;P1;durP1;ratioP1;P2;durP2;ratioP2
41263;SDS011;26998;48.714;9.414;2023-04-01T00:01:57;2.72;;;0.82;;
41263;SDS011;26998;48.714;9.414;2023-04-01T00:04:24;3.22;;;1.15;;
41263;SDS011;26998;48.714;9.414;2023-04-01T00:06:50;3.20;;;1.02;;
41263;SDS011;26998;48.714;9.414;2023-04-01T00:09:17;2.40;;;0.80;;
41263;SDS011;26998;48.714;9.414;2023-04-01T00:11:44;1.73;;;1.25;;
41263;SDS011;26998;48.714;9.414;2023-04-01T00:14:10;1.13;;;0.68;;
41263;SDS011;26998;48.714;9.414;2023-04-01T00:16:37;3.65;;;0.90;;
41263;SDS011;26998;48.714;9.414;2023-04-01T00:19:03;4.78;;;0.82;;
41263;SDS011;26998;48.714;9.414;2023-04-01T00:21:30;2.05;;;0.77;;
41263;SDS011;26998;48.714;9.414;2023-04-01T00:23:56;2.92;;;1.00;;
41263;SDS011;26998;48.714;9.414;2023-04-01T00:26:23;3.97;;;0.98;;
41263;SDS011;26998;48.714;9.414;2023-04-01T00:28:49;2.85;;;1.02;;
41263;SDS011;26998;48.714;9.414;2023-04-01T00:31:16;2.58;;;0.80;;
41263;SDS011;26998;48.714;9.414;2023-04-01T00:33:42;4.30;;;0.88;;
41263;SDS011;26998;48.714;9.414;2023-04-01T00:36:16;4.13;;;0.75;;
41263;SDS011;26998;48.714;9.414;2023-04-01T00:38:44;5.68;;;1.05;;
41263;SDS011;26998;48.714;9.414;2023-04-01T00:41:11;3.38;;;1.15;;
41263;SDS011;26998;48.714;9.414;2023-04-01T00:43:39;4.00;;;1.13;;
41263;SDS011;26998;48.714;9.414;2023-04-01T00:46:06;2.03;;;0.68;;
41263;SDS011;26998;48.714;9.414;2023-04-01T00:48:33;3.10;;;0.82;;
41263;SDS011;26998;48.714;9.414;2023-04-01T00:51:12;2.60;;;0.80;;
41263;SDS011;26998;48.714;9.414;2023-04-01T00:53:43;3.03;;;0.90;;
41263;SDS011;26998;48.714;9.414;2023-04-01T00:59:13;3.92;;;0.80;;
41263;SDS011;26998;48.714;9.414;2023-04-01T01:01:45;3.50;;;0.88;;
41263;SDS011;26998;48.714;9.414;2023-04-01T01:04:25;3.45;;;0.85;;
41263;SDS011;26998;48.714;9.414;2023-04-01T01:07:06;2.85;;;0.60;;
41263;SDS011;26998;48.714;9.414;2023-04-01T01:17:58;1.73;;;0.60;;
41263;SDS011;26998;48.714;9.414;2023-04-01T01:24:08;2.03;;;0.98;;
41263;SDS011;26998;48.714;9.414;2023-04-01T01:26:48;3.45;;;0.70;;
41263;SDS011;26998;48.714;9.414;2023-04-01T01:37:46;2.13;;;0.80;;
41263;SDS011;26998;48.714;9.414;2023-04-01T01:40:15;2.92;;;0.90;;
41263;SDS011;26998;48.714;9.414;2023-04-01T01:42:44;4.53;;;1.50;;
41263;SDS011;26998;48.714;9.414;2023-04-01T01:45:14;1.23;;;0.70;;
41263;SDS011;26998;48.714;9.414;2023-04-01T01:47:44;2.67;;;1.05;;
41263;SDS011;26998;48.714;9.414;2023-04-01T01:50:12;2.78;;;0.80;;
41263;SDS011;26998;48.714;9.414;2023-04-01T01:52:40;1.35;;;0.60;;
41263;SDS011;26998;48.714;9.414;2023-04-01T01:55:22;2.05;;;0.70;;
41263;SDS011;26998;48.714;9.414;2023-04-01T01:57:55;2.28;;;0.70;;
41263;SDS011;26998;48.714;9.414;2023-04-01T02:00:25;3.15;;;0.90;;
41263;SDS011;26998;48.714;9.414;2023-04-01T02:02:52;2.85;;;0.90;;
41263;SDS011;26998;48.714;9.414;2023-04-01T02:05:23;1.13;;;0.60;;
41263;SDS011;26998;48.714;9.414;2023-04-01T02:07:57;1.35;;;0.60;;
41263;SDS011;26998;48.714;9.414;2023-04-01T02:10:39;3.47;;;0.82;;
41263;SDS011;26998;48.714;9.414;2023-04-01T02:13:12;1.10;;;0.68;;
41263;SDS011;26998;48.714;9.414;2023-04-01T02:15:45;1.73;;;0.60;;
41263;SDS011;26998;48.714;9.414;2023-04-01T02:18:14;0.57;;;0.40;;
41263;SDS011;26998;48.714;9.414;2023-04-01T02:20:43;1.38;;;0.50;;
41263;SDS011;26998;48.714;9.414;2023-04-01T02:23:10;2.03;;;0.52;;
41263;SDS011;26998;48.714;9.414;2023-04-01T02:25:38;1.98;;;0.30;;
41263;SDS011;26998;48.714;9.414;2023-04-01T02:28:07;0.95;;;0.47;;
41263;SDS011;26998;48.714;9.414;2023-04-01T02:30:36;3.75;;;0.77;;
41263;SDS011;26998;48.714;9.414;2023-04-01T02:33:05;2.00;;;0.60;;
41263;SDS011;26998;48.714;9.414;2023-04-01T02:35:33;1.67;;;0.50;;
41263;SDS011;26998;48.714;9.414;2023-04-01T02:38:02;4.63;;;0.63;;
41263;SDS011;26998;48.714;9.414;2023-04-01T02:40:29;2.03;;;0.65;;
41263;SDS011;26998;48.714;9.414;2023-04-01T02:42:55;0.30;;;0.30;;
41263;SDS011;26998;48.714;9.414;2023-04-01T02:45:22;0.80;;;0.50;;
41263;SDS011;26998;48.714;9.414;2023-04-01T02:47:48;1.35;;;0.43;;
41263;SDS011;26998;48.714;9.414;2023-04-01T02:50:15;2.10;;;0.57;;
41263;SDS011;26998;48.714;9.414;2023-04-01T02:52:42;1.45;;;0.47;;
41263;SDS011;26998;48.714;9.414;2023-04-01T02:55:08;1.23;;;0.30;;
41263;SDS011;26998;48.714;9.414;2023-04-01T02:57:35;1.92;;;0.55;;
41263;SDS011;26998;48.714;9.414;2023-04-01T03:00:01;2.80;;;0.60;;
41263;SDS011;26998;48.714;9.414;2023-04-01T03:02:29;1.08;;;0.40;;
41263;SDS011;26998;48.714;9.414;2023-04-01T03:04:55;1.15;;;0.40;;
41263;SDS011;26998;48.714;9.414;2023-04-01T03:07:23;1.05;;;0.30;;
41263;SDS011;26998;48.714;9.414;2023-04-01T03:09:49;1.38;;;0.68;;
41263;SDS011;26998;48.714;9.414;2023-04-01T03:12:16;1.23;;;0.50;;
41263;SDS011;26998;48.714;9.414;2023-04-01T03:14:42;0.60;;;0.40;;
41263;SDS011;26998;48.714;9.414;2023-04-01T03:17:09;0.90;;;0.30;;
41263;SDS011;26998;48.714;9.414;2023-04-01T03:19:35;2.28;;;0.50;;
41263;SDS011;26998;48.714;9.414;2023-04-01T03:22:02;0.30;;;0.30;;
41263;SDS011;26998;48.714;9.414;2023-04-01T03:24:28;0.57;;;0.40;;
41263;SDS011;26998;48.714;9.414;2023-04-01T03:26:55;0.63;;;0.30;;
41263;SDS011;26998;48.714;9.414;2023-04-01T03:29:21;1.85;;;0.20;;
41263;SDS011;26998;48.714;9.414;2023-04-01T03:31:47;0.28;;;0.20;;
41263;SDS011;26998;48.714;9.414;2023-04-01T03:34:14;0.28;;;0.22;;
41263;SDS011;26998;48.714;9.414;2023-04-01T03:36:40;0.77;;;0.35;;
41263;SDS011;26998;48.714;9.414;2023-04-01T03:39:07;0.60;;;0.30;;
41263;SDS011;26998;48.714;9.414;2023-04-01T03:41:35;1.33;;;0.25;;
41263;SDS011;26998;48.714;9.414;2023-04-01T03:44:02;0.82;;;0.30;;
41263;SDS011;26998;48.714;9.414;2023-04-01T03:46:29;1.27;;;0.45;;
41263;SDS011;26998;48.714;9.414;2023-04-01T03:48:56;0.40;;;0.30;;
41263;SDS011;26998;48.714;9.414;2023-04-01T03:51:22;0.38;;;0.30;;
41263;SDS011;26998;48.714;9.414;2023-04-01T03:53:49;0.20;;;0.20;;
41263;SDS011;26998;48.714;9.414;2023-04-01T03:56:15;1.02;;;0.35;;
41263;SDS011;26998;48.714;9.414;2023-04-01T03:58:42;1.17;;;0.28;;
41263;SDS011;26998;48.714;9.414;2023-04-01T04:01:15;1.45;;;0.28;;
41263;SDS011;26998;48.714;9.414;2023-04-01T04:03:45;0.22;;;0.22;;
41263;SDS011;26998;48.714;9.414;2023-04-01T04:06:13;1.20;;;0.60;;
41263;SDS011;26998;48.714;9.414;2023-04-01T04:08:40;0.45;;;0.25;;
41263;SDS011;26998;48.714;9.414;2023-04-01T04:11:06;1.27;;;0.40;;
41263;SDS011;26998;48.714;9.414;2023-04-01T04:13:33;0.47;;;0.47;;
41263;SDS011;26998;48.714;9.414;2023-04-01T04:16:00;0.93;;;0.30;;
41263;SDS011;26998;48.714;9.414;2023-04-01T04:18:26;0.68;;;0.30;;
41263;SDS011;26998;48.714;9.414;2023-04-01T04:20:53;0.32;;;0.30;;
41263;SDS011;26998;48.714;9.414;2023-04-01T04:23:19;0.70;;;0.30;;
41263;SDS011;26998;48.714;9.414;2023-04-01T04:25:57;1.60;;;0.30;;
41263;SDS011;26998;48.714;9.414;2023-04-01T04:28:29;0.40;;;0.30;;
41263;SDS011;26998;48.714;9.414;2023-04-01T04:30:55;0.52;;;0.40;;
41263;SDS011;26998;48.714;9.414;2023-04-01T04:33:22;0.20;;;0.20;;
41263;SDS011;26998;48.714;9.414;2023-04-01T04:35:50;1.35;;;0.50;;
41263;SDS011;26998;48.714;9.414;2023-04-01T04:38:17;0.35;;;0.20;;
41263;SDS011;26998;48.714;9.414;2023-04-01T04:40:44;2.25;;;0.47;;
41263;SDS011;26998;48.714;9.414;2023-04-01T04:43:11;0.35;;;0.30;;
41263;SDS011;26998;48.714;9.414;2023-04-01T04:45:39;0.75;;;0.28;;
41263;SDS011;26998;48.714;9.414;2023-04-01T04:48:09;0.77;;;0.30;;
41263;SDS011;26998;48.714;9.414;2023-04-01T04:50:36;1.67;;;0.38;;
41263;SDS011;26998;48.714;9.414;2023-04-01T04:53:02;1.17;;;0.40;;
41263;SDS011;26998;48.714;9.414;2023-04-01T04:55:29;0.22;;;0.20;;
41263;SDS011;26998;48.714;9.414;2023-04-01T04:57:56;0.75;;;0.30;;
41263;SDS011;26998;48.714;9.414;2023-04-01T05:00:22;2.15;;;0.32;;
41263;SDS011;26998;48.714;9.414;2023-04-01T05:02:50;0.95;;;0.45;;
41263;SDS011;26998;48.714;9.414;2023-04-01T05:05:17;0.75;;;0.40;;
41263;SDS011;26998;48.714;9.414;2023-04-01T05:07:44;0.30;;;0.30;;
41263;SDS011;26998;48.714;9.414;2023-04-01T05:10:10;0.50;;;0.38;;
41263;SDS011;26998;48.714;9.414;2023-04-01T05:12:37;0.30;;;0.30;;
41263;SDS011;26998;48.714;9.414;2023-04-01T05:15:04;1.48;;;0.63;;
41263;SDS011;26998;48.714;9.414;2023-04-01T05:17:31;1.35;;;0.30;;
41263;SDS011;26998;48.714;9.414;2023-04-01T05:19:58;0.88;;;0.47;;
41263;SDS011;26998;48.714;9.414;2023-04-01T05:22:24;0.93;;;0.52;;
41263;SDS011;26998;48.714;9.414;2023-04-01T05:24:51;2.15;;;1.00;;
41263;SDS011;26998;48.714;9.414;2023-04-01T05:27:17;3.47;;;0.70;;
41263;SDS011;26998;48.714;9.414;2023-04-01T05:29:44;1.15;;;0.30;;
41263;SDS011;26998;48.714;9.414;2023-04-01T05:32:10;1.63;;;0.40;;
41263;SDS011;26998;48.714;9.414;2023-04-01T05:34:36;2.05;;;0.60;;
41263;SDS011;26998;48.714;9.414;2023-04-01T05:37:03;1.35;;;0.60;;
41263;SDS011;26998;48.714;9.414;2023-04-01T05:39:29;5.75;;;1.45;;
41263;SDS011;26998;48.714;9.414;2023-04-01T05:41:56;2.17;;;0.90;;
41263;SDS011;26998;48.714;9.414;2023-04-01T05:44:22;1.35;;;0.63;;
41263;SDS011;26998;48.714;9.414;2023-04-01T05:46:49;3.00;;;0.65;;
41263;SDS011;26998;48.714;9.414;2023-04-01T05:49:15;3.83;;;0.60;;
41263;SDS011;26998;48.714;9.414;2023-04-01T05:51:42;1.15;;;0.60;;
41263;SDS011;26998;48.714;9.414;2023-04-01T05:54:08;2.95;;;0.95;;
41263;SDS011;26998;48.714;9.414;2023-04-01T05:56:35;1.98;;;0.57;;
41263;SDS011;26998;48.714;9.414;2023-04-01T05:59:01;2.17;;;0.55;;
41263;SDS011;26998;48.714;9.414;2023-04-01T06:01:28;0.77;;;0.63;;
41263;SDS011;26998;48.714;9.414;2023-04-01T06:03:54;1.00;;;0.40;;
41263;SDS011;26998;48.714;9.414;2023-04-01T06:06:27;0.75;;;0.47;;
41263;SDS011;26998;48.714;9.414;2023-04-01T06:08:56;0.75;;;0.50;;
41263;SDS011;26998;48.714;9.414;2023-04-01T06:14:30;1.20;;;0.43;;
41263;SDS011;26998;48.714;9.414;2023-04-01T06:22:51;0.55;;;0.35;;
41263;SDS011;26998;48.714;9.414;2023-04-01T06:33:54;1.67;;;0.32;;
41263;SDS011;26998;48.714;9.414;2023-04-01T06:36:39;1.55;;;0.47;;
41263;SDS011;26998;48.714;9.414;2023-04-01T06:41:47;1.13;;;0.63;;
41263;SDS011;26998;48.714;9.414;2023-04-01T06:44:28;1.20;;;0.40;;
41263;SDS011;26998;48.714;9.414;2023-04-01T06:52:52;1.98;;;0.60;;
41263;SDS011;26998;48.714;9.414;2023-04-01T06:55:41;1.25;;;0.55;;
41263;SDS011;26998;48.714;9.414;2023-04-01T06:58:30;4.43;;;1.27;;
41263;SDS011;26998;48.714;9.414;2023-04-01T07:01:03;2.50;;;0.90;;
41263;SDS011;26998;48.714;9.414;2023-04-01T07:03:32;4.07;;;1.00;;
41263;SDS011;26998;48.714;9.414;2023-04-01T07:06:03;3.05;;;1.30;;
41263;SDS011;26998;48.714;9.414;2023-04-01T07:08:33;1.50;;;0.80;;
41263;SDS011;26998;48.714;9.414;2023-04-01T07:11:03;3.92;;;1.05;;
41263;SDS011;26998;48.714;9.414;2023-04-01T07:13:34;2.05;;;1.13;;
41263;SDS011;26998;48.714;9.414;2023-04-01T07:16:17;2.20;;;0.70;;
41263;SDS011;26998;48.714;9.414;2023-04-01T07:18:52;1.65;;;0.73;;
41263;SDS011;26998;48.714;9.414;2023-04-01T07:21:32;1.38;;;0.70;;
41263;SDS011;26998;48.714;9.414;2023-04-01T07:24:09;2.42;;;0.75;;
41263;SDS011;26998;48.714;9.414;2023-04-01T07:26:40;1.45;;;0.68;;
41263;SDS011;26998;48.714;9.414;2023-04-01T07:29:10;1.77;;;0.57;;
41263;SDS011;26998;48.714;9.414;2023-04-01T07:31:45;2.22;;;0.63;;
41263;SDS011;26998;48.714;9.414;2023-04-01T07:34:24;0.50;;;0.50;;
41263;SDS011;26998;48.714;9.414;2023-04-01T07:37:05;1.05;;;0.73;;
41263;SDS011;26998;48.714;9.414;2023-04-01T07:53:25;1.33;;;0.52;;
41263;SDS011;26998;48.714;9.414;2023-04-01T07:56:09;0.85;;;0.50;;
41263;SDS011;26998;48.714;9.414;2023-04-01T08:12:27;1.60;;;0.60;;
41263;SDS011;26998;48.714;9.414;2023-04-01T08:20:46;2.22;;;0.50;;
41263;SDS011;26998;48.714;9.414;2023-04-01T08:23:19;2.90;;;0.63;;
41263;SDS011;26998;48.714;9.414;2023-04-01T08:33:58;6.20;;;0.95;;
41263;SDS011;26998;48.714;9.414;2023-04-01T08:36:31;1.25;;;0.60;;
41263;SDS011;26998;48.714;9.414;2023-04-01T08:39:04;1.92;;;0.70;;
41263;SDS011;26998;48.714;9.414;2023-04-01T08:47:50;4.88;;;0.68;;
41263;SDS011;26998;48.714;9.414;2023-04-01T08:50:36;2.47;;;0.70;;
41263;SDS011;26998;48.714;9.414;2023-04-01T08:56:14;3.70;;;0.73;;
41263;SDS011;26998;48.714;9.414;2023-04-01T09:07:32;0.85;;;0.60;;
41263;SDS011;26998;48.714;9.414;2023-04-01T09:15:27;1.63;;;0.57;;
41263;SDS011;26998;48.714;9.414;2023-04-01T09:18:24;1.17;;;0.40;;
41263;SDS011;26998;48.714;9.414;2023-04-01T09:24:26;2.08;;;0.93;;
41263;SDS011;26998;48.714;9.414;2023-04-01T09:27:03;0.40;;;0.40;;
41263;SDS011;26998;48.714;9.414;2023-04-01T10:09:12;0.25;;;0.25;;
41263;SDS011;26998;48.714;9.414;2023-04-01T10:11:52;0.90;;;0.35;;
41263;SDS011;26998;48.714;9.414;2023-04-01T10:14:28;2.33;;;0.50;;
41263;SDS011;26998;48.714;9.414;2023-04-01T10:20:21;0.93;;;0.70;;
41263;SDS011;26998;48.714;9.414;2023-04-01T10:28:57;0.88;;;0.52;;
41263;SDS011;26998;48.714;9.414;2023-04-01T10:37:09;0.60;;;0.43;;
41263;SDS011;26998;48.714;9.414;2023-04-01T10:48:30;4.25;;;0.68;;
41263;SDS011;26998;48.714;9.414;2023-04-01T11:10:10;0.30;;;0.30;;
41263;SDS011;26998;48.714;9.414;2023-04-01T11:24:38;0.50;;;0.40;;
41263;SDS011;26998;48.714;9.414;2023-04-01T11:30:26;0.22;;;0.22;;
41263;SDS011;26998;48.714;9.414;2023-04-01T11:41:34;1.65;;;0.68;;
41263;SDS011;26998;48.714;9.414;2023-04-01T11:49:33;0.75;;;0.40;;
41263;SDS011;26998;48.714;9.414;2023-04-01T11:52:09;0.47;;;0.20;;
41263;SDS011;26998;48.714;9.414;2023-04-01T12:03:16;0.88;;;0.30;;
41263;SDS011;26998;48.714;9.414;2023-04-01T12:06:01;1.25;;;0.25;;
41263;SDS011;26998;48.714;9.414;2023-04-01T12:27:52;0.30;;;0.30;;
41263;SDS011;26998;48.714;9.414;2023-04-01T12:33:28;0.98;;;0.28;;
41263;SDS011;26998;48.714;9.414;2023-04-01T12:36:18;0.25;;;0.25;;
41263;SDS011;26998;48.714;9.414;2023-04-01T12:39:05;0.43;;;0.28;;
41263;SDS011;26998;48.714;9.414;2023-04-01T12:54:03;1.85;;;1.10;;
41263;SDS011;26998;48.714;9.414;2023-04-01T13:10:54;4.40;;;0.30;;
41263;SDS011;26998;48.714;9.414;2023-04-01T13:16:26;1.00;;;0.45;;
41263;SDS011;26998;48.714;9.414;2023-04-01T13:24:36;0.20;;;0.13;;
41263;SDS011;26998;48.714;9.414;2023-04-01T13:32:44;0.20;;;0.20;;
41263;SDS011;26998;48.714;9.414;2023-04-01T13:35:25;0.55;;;0.30;;
41263;SDS011;26998;48.714;9.414;2023-04-01T13:41:11;1.25;;;0.35;;
41263;SDS011;26998;48.714;9.414;2023-04-01T13:43:45;0.28;;;0.25;;
41263;SDS011;26998;48.714;9.414;2023-04-01T13:46:36;0.30;;;0.30;;
41263;SDS011;26998;48.714;9.414;2023-04-01T13:52:14;2.75;;;0.20;;
41263;SDS011;26998;48.714;9.414;2023-04-01T13:54:50;0.40;;;0.30;;
41263;SDS011;26998;48.714;9.414;2023-04-01T14:05:50;0.25;;;0.25;;
41263;SDS011;26998;48.714;9.414;2023-04-01T14:08:18;0.30;;;0.30;;
41263;SDS011;26998;48.714;9.414;2023-04-01T14:11:10;1.55;;;0.32;;
41263;SDS011;26998;48.714;9.414;2023-04-01T14:16:48;0.25;;;0.20;;
41263;SDS011;26998;48.714;9.414;2023-04-01T14:19:33;0.20;;;0.20;;
41263;SDS011;26998;48.714;9.414;2023-04-01T14:28:08;0.30;;;0.30;;
41263;SDS011;26998;48.714;9.414;2023-04-01T14:34:01;0.30;;;0.30;;
41263;SDS011;26998;48.714;9.414;2023-04-01T14:48:32;1.10;;;0.25;;
41263;SDS011;26998;48.714;9.414;2023-04-01T14:51:29;0.70;;;0.30;;
41263;SDS011;26998;48.714;9.414;2023-04-01T14:56:43;0.35;;;0.30;;
41263;SDS011;26998;48.714;9.414;2023-04-01T14:59:17;1.27;;;0.70;;
41263;SDS011;26998;48.714;9.414;2023-04-01T15:01:57;0.50;;;0.50;;
41263;SDS011;26998;48.714;9.414;2023-04-01T15:04:43;3.95;;;0.55;;
41263;SDS011;26998;48.714;9.414;2023-04-01T15:10:34;2.35;;;0.40;;
41263;SDS011;26998;48.714;9.414;2023-04-01T15:13:15;0.60;;;0.52;;
41263;SDS011;26998;48.714;9.414;2023-04-01T15:16:09;0.63;;;0.60;;
41263;SDS011;26998;48.714;9.414;2023-04-01T15:21:44;2.60;;;0.40;;
41263;SDS011;26998;48.714;9.414;2023-04-01T15:24:22;0.75;;;0.30;;
41263;SDS011;26998;48.714;9.414;2023-04-01T15:32:17;0.40;;;0.40;;
41263;SDS011;26998;48.714;9.414;2023-04-01T15:37:50;1.75;;;0.50;;
41263;SDS011;26998;48.714;9.414;2023-04-01T15:40:32;0.65;;;0.60;;
41263;SDS011;26998;48.714;9.414;2023-04-01T15:45:45;2.15;;;1.08;;
41263;SDS011;26998;48.714;9.414;2023-04-01T15:48:20;0.98;;;0.60;;
41263;SDS011;26998;48.714;9.414;2023-04-01T15:51:01;0.30;;;0.30;;
41263;SDS011;26998;48.714;9.414;2023-04-01T15:53:44;1.65;;;0.60;;
41263;SDS011;26998;48.714;9.414;2023-04-01T15:59:00;0.50;;;0.45;;
41263;SDS011;26998;48.714;9.414;2023-04-01T16:01:44;1.63;;;0.60;;
41263;SDS011;26998;48.714;9.414;2023-04-01T16:04:44;0.85;;;0.85;;
41263;SDS011;26998;48.714;9.414;2023-04-01T16:07:21;1.77;;;0.50;;
41263;SDS011;26998;48.714;9.414;2023-04-01T16:20:53;1.50;;;0.55;;
41263;SDS011;26998;48.714;9.414;2023-04-01T16:26:18;2.13;;;0.40;;
41263;SDS011;26998;48.714;9.414;2023-04-01T16:28:57;0.85;;;0.52;;
41263;SDS011;26998;48.714;9.414;2023-04-01T16:31:42;2.08;;;0.65;;
41263;SDS011;26998;48.714;9.414;2023-04-01T16:34:34;0.85;;;0.60;;
41263;SDS011;26998;48.714;9.414;2023-04-01T16:37:12;1.23;;;0.47;;
41263;SDS011;26998;48.714;9.414;2023-04-01T16:45:17;1.52;;;0.88;;
41263;SDS011;26998;48.714;9.414;2023-04-01T16:48:05;1.23;;;0.73;;
41263;SDS011;26998;48.714;9.414;2023-04-01T16:50:52;1.52;;;0.75;;
41263;SDS011;26998;48.714;9.414;2023-04-01T16:59:29;1.45;;;0.50;;
41263;SDS011;26998;48.714;9.414;2023-04-01T17:01:42;1.05;;;0.93;;
41263;SDS011;26998;48.714;9.414;2023-04-01T17:04:18;1.10;;;0.50;;
41263;SDS011;26998;48.714;9.414;2023-04-01T17:13:07;1.38;;;1.10;;
41263;SDS011;26998;48.714;9.414;2023-04-01T17:20:56;1.85;;;0.77;;
41263;SDS011;26998;48.714;9.414;2023-04-01T17:23:36;1.88;;;0.90;;
41263;SDS011;26998;48.714;9.414;2023-04-01T17:29:22;1.13;;;0.70;;
41263;SDS011;26998;48.714;9.414;2023-04-01T17:32:03;3.10;;;0.70;;
41263;SDS011;26998;48.714;9.414;2023-04-01T17:40:21;2.85;;;0.98;;
41263;SDS011;26998;48.714;9.414;2023-04-01T17:48:18;1.05;;;0.80;;
41263;SDS011;26998;48.714;9.414;2023-04-01T17:51:17;1.80;;;0.98;;
41263;SDS011;26998;48.714;9.414;2023-04-01T17:53:51;2.38;;;1.38;;
41263;SDS011;26998;48.714;9.414;2023-04-01T17:56:52;1.50;;;0.80;;
41263;SDS011;26998;48.714;9.414;2023-04-01T17:59:36;1.25;;;0.90;;
41263;SDS011;26998;48.714;9.414;2023-04-01T18:04:53;1.83;;;1.15;;
41263;SDS011;26998;48.714;9.414;2023-04-01T18:16:23;1.05;;;0.80;;
41263;SDS011;26998;48.714;9.414;2023-04-01T18:19:09;1.00;;;0.90;;
41263;SDS011;26998;48.714;9.414;2023-04-01T18:35:18;2.72;;;1.27;;
41263;SDS011;26998;48.714;9.414;2023-04-01T18:37:52;3.25;;;1.00;;
41263;SDS011;26998;48.714;9.414;2023-04-01T18:40:23;2.42;;;1.00;;
41263;SDS011;26998;48.714;9.414;2023-04-01T18:43:00;2.85;;;1.50;;
41263;SDS011;26998;48.714;9.414;2023-04-01T18:45:36;2.08;;;1.60;;
41263;SDS011;26998;48.714;9.414;2023-04-01T18:48:27;4.70;;;1.75;;
41263;SDS011;26998;48.714;9.414;2023-04-01T18:51:14;1.17;;;1.00;;
41263;SDS011;26998;48.714;9.414;2023-04-01T18:54:00;2.28;;;1.13;;
41263;SDS011;26998;48.714;9.414;2023-04-01T18:56:33;2.40;;;0.93;;
41263;SDS011;26998;48.714;9.414;2023-04-01T18:59:11;0.93;;;0.70;;
41263;SDS011;26998;48.714;9.414;2023-04-01T19:07:51;0.70;;;0.70;;
41263;SDS011;26998;48.714;9.414;2023-04-01T19:10:26;2.28;;;1.02;;
41263;SDS011;26998;48.714;9.414;2023-04-01T19:13:09;0.70;;;0.60;;
41263;SDS011;26998;48.714;9.414;2023-04-01T19:18:51;0.63;;;0.60;;
41263;SDS011;26998;48.714;9.414;2023-04-01T19:21:43;1.25;;;0.65;;
41263;SDS011;26998;48.714;9.414;2023-04-01T19:29:46;1.38;;;0.95;;
41263;SDS011;26998;48.714;9.414;2023-04-01T19:49:43;2.53;;;1.92;;
41263;SDS011;26998;48.714;9.414;2023-04-01T19:54:48;0.70;;;0.70;;
41263;SDS011;26998;48.714;9.414;2023-04-01T20:00:22;1.85;;;1.00;;
41263;SDS011;26998;48.714;9.414;2023-04-01T20:05:38;1.75;;;0.93;;
41263;SDS011;26998;48.714;9.414;2023-04-01T20:08:16;1.40;;;0.90;;
41263;SDS011;26998;48.714;9.414;2023-04-01T20:10:57;1.77;;;0.80;;
41263;SDS011;26998;48.714;9.414;2023-04-01T20:16:12;1.80;;;0.82;;
41263;SDS011;26998;48.714;9.414;2023-04-01T20:26:44;2.20;;;0.90;;
41263;SDS011;26998;48.714;9.414;2023-04-01T20:32:18;2.83;;;1.25;;
41263;SDS011;26998;48.714;9.414;2023-04-01T20:40:50;1.27;;;1.17;;
41263;SDS011;26998;48.714;9.414;2023-04-01T20:51:16;2.63;;;1.10;;
41263;SDS011;26998;48.714;9.414;2023-04-01T20:53:50;1.00;;;0.90;;
41263;SDS011;26998;48.714;9.414;2023-04-01T20:56:34;2.03;;;1.30;;
41263;SDS011;26998;48.714;9.414;2023-04-01T20:59:16;2.10;;;0.95;;
41263;SDS011;26998;48.714;9.414;2023-04-01T21:16:40;1.98;;;1.30;;
41263;SDS011;26998;48.714;9.414;2023-04-01T21:19:32;2.08;;;1.23;;
41263;SDS011;26998;48.714;9.414;2023-04-01T21:25:17;2.72;;;1.40;;
41263;SDS011;26998;48.714;9.414;2023-04-01T21:28:15;3.00;;;1.38;;
41263;SDS011;26998;48.714;9.414;2023-04-01T21:33:59;1.52;;;1.20;;
41263;SDS011;26998;48.714;9.414;2023-04-01T21:37:26;1.55;;;1.20;;
41263;SDS011;26998;48.714;9.414;2023-04-01T21:42:28;3.50;;;1.48;;
41263;SDS011;26998;48.714;9.414;2023-04-01T21:47:59;2.75;;;1.77;;
41263;SDS011;26998;48.714;9.414;2023-04-01T21:50:54;1.63;;;1.50;;
41263;SDS011;26998;48.714;9.414;2023-04-01T21:59:12;3.97;;;1.50;;
41263;SDS011;26998;48.714;9.414;2023-04-01T22:04:48;2.90;;;1.00;;
41263;SDS011;26998;48.714;9.414;2023-04-01T22:07:28;3.30;;;1.13;;
41263;SDS011;26998;48.714;9.414;2023-04-01T22:10:41;0.77;;;0.77;;
41263;SDS011;26998;48.714;9.414;2023-04-01T22:13:10;2.08;;;0.93;;
41263;SDS011;26998;48.714;9.414;2023-04-01T22:15:46;1.95;;;1.30;;
41263;SDS011;26998;48.714;9.414;2023-04-01T22:18:17;1.67;;;0.82;;
41263;SDS011;26998;48.714;9.414;2023-04-01T22:23:36;1.40;;;1.08;;
41263;SDS011;26998;48.714;9.414;2023-04-01T22:26:23;1.52;;;1.08;;
41263;SDS011;26998;48.714;9.414;2023-04-01T22:29:06;1.80;;;1.10;;
41263;SDS011;26998;48.714;9.414;2023-04-01T22:31:44;1.23;;;0.80;;
41263;SDS011;26998;48.714;9.414;2023-04-01T22:35:02;2.33;;;1.00;;
41263;SDS011;26998;48.714;9.414;2023-04-01T22:37:32;0.80;;;0.80;;
41263;SDS011;26998;48.714;9.414;2023-04-01T22:40:24;1.70;;;1.13;;
41263;SDS011;26998;48.714;9.414;2023-04-01T22:43:11;2.50;;;0.98;;
41263;SDS011;26998;48.714;9.414;2023-04-01T22:51:01;1.90;;;1.38;;
41263;SDS011;26998;48.714;9.414;2023-04-01T22:56:18;2.92;;;1.17;;
41263;SDS011;26998;48.714;9.414;2023-04-01T23:01:35;1.17;;;1.02;;
41263;SDS011;26998;48.714;9.414;2023-04-01T23:04:17;1.48;;;1.15;;
41263;SDS011;26998;48.714;9.414;2023-04-01T23:06:52;1.10;;;1.00;;
41263;SDS011;26998;48.714;9.414;2023-04-01T23:09:24;1.30;;;0.90;;
41263;SDS011;26998;48.714;9.414;2023-04-01T23:12:09;1.40;;;1.00;;
41263;SDS011;26998;48.714;9.414;2023-04-01T23:20:32;1.90;;;1.17;;
41263;SDS011;26998;48.714;9.414;2023-04-01T23:30:46;1.52;;;0.75;;
41263;SDS011;26998;48.714;9.414;2023-04-01T23:35:58;2.15;;;0.95;;
41263;SDS011;26998;48.714;9.414;2023-04-01T23:38:25;1.77;;;1.05;;
41263;SDS011;26998;48.714;9.414;2023-04-01T23:40:53;1.25;;;1.00;;
41263;SDS011;26998;48.714;9.414;2023-04-01T23:43:22;0.80;;;0.80;;
41263;SDS011;26998;48.714;9.414;2023-04-01T23:45:53;1.05;;;0.93;;
41263;SDS011;26998;48.714;9.414;2023-04-01T23:48:26;1.42;;;0.80;;
41263;SDS011;26998;48.714;9.414;2023-04-01T23:50:56;0.93;;;0.60;;
41263;SDS011;26998;48.714;9.414;2023-04-01T23:53:25;0.68;;;0.50;;
41263;SDS011;26998;48.714;9.414;2023-04-01T23:55:55;1.75;;;0.80;;
41263;SDS011;26998;48.714;9.414;2023-04-01T23:58:23;1.05;;;0.95;;
